createdAt,value
2018-12-18T00:02:18.635Z,31.63
2018-12-18T00:07:26.690Z,40.40
2018-12-18T00:12:34.356Z,32.45
2018-12-18T00:17:44.531Z,32.23
2018-12-18T00:22:50.920Z,35.73
2018-12-18T00:27:56.764Z,46.17
2018-12-18T00:33:06.457Z,29.00
2018-12-18T00:38:12.409Z,27.63
2018-12-18T00:43:20.258Z,28.80
2018-12-18T00:48:26.091Z,33.43
2018-12-18T00:53:32.058Z,40.17
2018-12-18T00:58:39.387Z,36.20
2018-12-18T01:03:52.559Z,32.07
2018-12-18T01:08:54.315Z,24.97
2018-12-18T01:14:04.566Z,23.80
2018-12-18T01:19:13.143Z,25.02
2018-12-18T01:24:20.283Z,24.63
2018-12-18T01:29:27.067Z,24.17
2018-12-18T01:34:32.860Z,24.23
2018-12-18T01:39:40.165Z,23.60
2018-12-18T01:44:48.426Z,24.20
2018-12-18T01:49:54.261Z,24.57
2018-12-18T01:55:00.090Z,25.83
2018-12-18T02:00:06.113Z,27.27
2018-12-18T02:05:12.870Z,24.50
2018-12-18T02:10:18.801Z,25.73
2018-12-18T02:15:25.050Z,24.03
2018-12-18T02:20:31.118Z,25.03
2018-12-18T02:25:38.196Z,25.00
2018-12-18T02:30:45.121Z,22.97
2018-12-18T02:35:51.152Z,25.23
2018-12-18T02:40:57.157Z,27.30
2018-12-18T02:46:03.048Z,25.77
2018-12-18T02:51:08.869Z,30.43
2018-12-18T02:56:14.802Z,28.45
2018-12-18T03:01:28.049Z,30.20
2018-12-18T03:06:36.465Z,24.63
2018-12-18T03:11:42.253Z,23.73
2018-12-18T03:16:50.652Z,24.17
2018-12-18T03:21:56.568Z,24.23
2018-12-18T03:27:02.458Z,26.43
2018-12-18T03:32:12.909Z,31.17
2018-12-18T03:37:18.710Z,27.50
2018-12-18T03:42:24.667Z,26.07
2018-12-18T03:47:33.265Z,25.73
2018-12-18T03:52:46.898Z,25.40
2018-12-18T03:57:56.206Z,24.60
2018-12-18T04:03:06.912Z,26.43
2018-12-18T04:08:13.721Z,24.40
2018-12-18T04:13:20.324Z,26.27
2018-12-18T04:18:26.181Z,34.83
2018-12-18T04:23:32.592Z,34.40
2018-12-18T04:28:38.887Z,49.93
2018-12-18T04:33:44.707Z,34.47
2018-12-18T04:38:51.765Z,39.57
2018-12-18T04:43:57.651Z,27.67
2018-12-18T04:49:05.658Z,29.57
2018-12-18T04:54:17.107Z,28.60
2018-12-18T04:59:23.968Z,30.30
2018-12-18T05:04:29.970Z,37.20
2018-12-18T05:09:41.520Z,37.90
2018-12-18T05:14:48.655Z,37.50
2018-12-18T05:19:55.457Z,36.07
2018-12-18T05:25:01.295Z,31.47
2018-12-18T05:30:10.744Z,38.10
2018-12-18T05:35:16.537Z,43.87
2018-12-18T05:40:25.194Z,29.83
2018-12-18T05:45:32.004Z,28.77
2018-12-18T05:50:37.715Z,34.30
2018-12-18T05:55:43.650Z,34.13
2018-12-18T06:00:52.638Z,31.67
2018-12-18T06:06:00.493Z,35.03
2018-12-18T06:11:06.226Z,72.47
2018-12-18T06:16:12.191Z,81.70
2018-12-18T06:21:19.101Z,48.50
2018-12-18T06:26:26.743Z,37.37
2018-12-18T06:31:34.520Z,40.53
2018-12-18T06:36:40.437Z,38.33
2018-12-18T06:41:46.363Z,40.77
2018-12-18T06:46:52.247Z,40.53
2018-12-18T06:51:58.174Z,36.13
2018-12-18T06:57:04.598Z,33.87
2018-12-18T07:02:10.766Z,46.53
2018-12-18T07:07:24.826Z,38.63
2018-12-18T07:12:32.526Z,41.63
2018-12-18T07:17:38.789Z,36.33
2018-12-18T07:22:45.686Z,37.67
2018-12-18T07:27:55.133Z,44.67
2018-12-18T07:33:02.048Z,37.30
2018-12-18T07:38:08.465Z,41.60
2018-12-18T07:43:14.449Z,40.75
2018-12-18T07:48:38.470Z,43.45
2018-12-18T07:53:48.374Z,63.07
2018-12-18T07:58:54.281Z,63.03
2018-12-18T08:04:02.074Z,162.50
2018-12-18T08:09:08.953Z,415.57
2018-12-18T08:14:14.775Z,447.57
2018-12-18T08:19:20.849Z,219.97
2018-12-18T08:24:26.902Z,242.83
2018-12-18T08:34:55.056Z,76.60
2018-12-18T08:40:00.875Z,47.40
2018-12-18T08:45:09.217Z,51.73
2018-12-18T08:50:15.263Z,95.43
2018-12-18T08:55:28.522Z,74.77
2018-12-18T09:00:38.571Z,103.83
2018-12-18T09:05:50.808Z,48.83
2018-12-18T09:10:58.694Z,45.47
2018-12-18T09:16:09.662Z,77.60
2018-12-18T09:21:18.817Z,64.67
2018-12-18T09:26:25.822Z,150.07
2018-12-18T09:31:31.973Z,84.00
2018-12-18T09:36:38.674Z,42.73
2018-12-18T09:41:47.481Z,61.73
2018-12-18T09:46:53.275Z,49.60
2018-12-18T09:52:03.881Z,50.40
2018-12-18T09:58:20.906Z,43.33
2018-12-18T10:03:33.485Z,37.27
2018-12-18T10:08:40.600Z,43.83
2018-12-18T10:14:05.411Z,43.23
2018-12-18T10:19:14.419Z,43.20
2018-12-18T10:24:22.050Z,41.37
2018-12-18T10:29:28.232Z,41.93
2018-12-18T10:34:36.181Z,37.40
2018-12-18T10:39:43.253Z,43.90
2018-12-18T10:44:50.076Z,57.57
2018-12-18T10:49:55.909Z,39.07
2018-12-18T10:55:01.765Z,39.50
2018-12-18T11:00:13.703Z,33.30
2018-12-18T11:05:19.628Z,35.80
2018-12-18T11:10:25.793Z,38.60
2018-12-18T11:15:31.599Z,34.67
2018-12-18T11:20:39.224Z,32.80
2018-12-18T11:25:46.327Z,31.03
2018-12-18T11:30:54.194Z,33.10
2018-12-18T11:36:00.313Z,43.60
2018-12-18T11:41:06.939Z,52.53
2018-12-18T11:46:12.765Z,60.73
2018-12-18T11:51:19.775Z,117.60
2018-12-18T11:56:27.330Z,89.03
2018-12-18T12:01:48.339Z,49.30
2018-12-18T12:06:55.678Z,33.60
2018-12-18T12:12:02.644Z,36.23
2018-12-18T12:17:08.446Z,36.23
2018-12-18T12:22:14.250Z,34.80
2018-12-18T12:27:25.430Z,46.30
2018-12-18T12:32:34.230Z,47.80
2018-12-18T12:37:40.621Z,34.33
2018-12-18T12:42:50.721Z,39.57
2018-12-18T12:48:00.435Z,36.13
2018-12-18T12:53:08.803Z,42.60
2018-12-18T12:58:14.898Z,39.42
2018-12-18T13:03:20.794Z,36.28
2018-12-18T13:08:26.677Z,58.17
2018-12-18T13:13:34.350Z,50.93
2018-12-18T13:18:41.565Z,57.60
2018-12-18T13:23:48.436Z,45.33
2018-12-18T13:28:54.552Z,45.77
2018-12-18T13:34:02.446Z,48.10
2018-12-18T13:39:08.717Z,57.93
2018-12-18T13:44:14.774Z,51.27
2018-12-18T13:49:21.490Z,60.17
2018-12-18T13:54:27.646Z,38.43
2018-12-18T13:59:34.512Z,45.03
2018-12-18T14:04:41.442Z,44.23
2018-12-18T14:09:50.198Z,41.40
2018-12-18T14:14:56.751Z,46.20
2018-12-18T14:20:04.869Z,49.93
2018-12-18T14:25:18.250Z,49.83
2018-12-18T14:30:25.390Z,51.60
2018-12-18T14:35:32.264Z,48.47
2018-12-18T14:40:38.200Z,46.83
2018-12-18T14:45:46.595Z,45.93
2018-12-18T14:50:52.799Z,44.30
2018-12-18T14:55:59.964Z,56.20
2018-12-18T15:01:06.511Z,59.00
2018-12-18T15:06:12.601Z,48.48
2018-12-18T15:11:18.800Z,43.28
2018-12-18T15:16:24.784Z,48.13
2018-12-18T15:21:31.695Z,119.30
2018-12-18T15:26:43.610Z,155.90
2018-12-18T15:31:54.403Z,117.03
2018-12-18T15:37:01.421Z,69.87
2018-12-18T15:42:08.769Z,102.17
2018-12-18T15:47:21.243Z,134.70
2018-12-18T15:52:27.345Z,61.87
2018-12-18T15:57:34.474Z,78.30
2018-12-18T16:02:41.779Z,58.87
2018-12-18T16:07:48.981Z,59.17
2018-12-18T16:12:56.943Z,59.57
2018-12-18T16:18:04.921Z,68.37
2018-12-18T16:23:11.563Z,81.37
2018-12-18T16:28:19.142Z,79.67
2018-12-18T16:33:25.010Z,58.37
2018-12-18T16:38:30.824Z,63.97
2018-12-18T16:43:39.359Z,68.77
2018-12-18T16:48:46.300Z,61.87
2018-12-18T16:53:52.250Z,62.60
2018-12-18T16:59:01.457Z,57.10
2018-12-18T17:04:10.218Z,55.20
2018-12-18T17:09:18.366Z,57.47
2018-12-18T17:14:27.935Z,77.27
2018-12-18T17:19:35.867Z,67.67
2018-12-18T17:24:44.869Z,62.43
2018-12-18T17:29:52.130Z,68.87
2018-12-18T17:34:59.537Z,66.07
2018-12-18T17:40:08.361Z,74.23
2018-12-18T17:45:14.922Z,69.07
2018-12-18T17:50:25.060Z,68.50
2018-12-18T17:55:31.682Z,116.70
2018-12-18T18:00:42.200Z,80.10
2018-12-18T18:05:51.144Z,62.13
2018-12-18T18:10:59.239Z,78.77
2018-12-18T18:16:06.099Z,62.63
2018-12-18T18:21:13.043Z,77.53
2018-12-18T18:26:19.223Z,71.00
2018-12-18T18:31:25.642Z,71.60
2018-12-18T18:36:32.476Z,75.12
2018-12-18T18:41:38.388Z,72.30
2018-12-18T18:46:44.318Z,62.20
2018-12-18T18:51:50.648Z,73.57
2018-12-18T18:56:56.622Z,77.00
2018-12-18T19:02:02.806Z,87.70
2018-12-18T19:07:08.998Z,63.63
2018-12-18T19:12:16.125Z,69.03
2018-12-18T19:17:24.466Z,84.32
2018-12-18T19:22:31.618Z,61.27
2018-12-18T19:27:37.756Z,64.60
2018-12-18T19:32:44.992Z,58.40
2018-12-18T19:37:52.775Z,56.17
2018-12-18T19:42:58.831Z,55.03
2018-12-18T19:48:05.174Z,58.40
2018-12-18T19:53:11.141Z,62.10
2018-12-18T19:58:18.061Z,52.97
2018-12-18T20:03:24.910Z,57.40
2018-12-18T20:08:36.235Z,56.13
2018-12-18T20:13:43.405Z,58.73
2018-12-18T20:18:49.459Z,68.10
2018-12-18T20:23:57.694Z,60.50
2018-12-18T20:29:04.884Z,51.47
2018-12-18T20:34:12.229Z,61.48
2018-12-18T20:39:20.104Z,96.53
2018-12-18T20:44:26.093Z,57.98
2018-12-18T20:49:32.956Z,51.47
2018-12-18T20:54:38.916Z,53.83
2018-12-18T20:59:46.525Z,97.70
2018-12-18T21:04:53.916Z,52.50
2018-12-18T21:10:02.940Z,71.27
2018-12-18T21:15:09.106Z,73.63
2018-12-18T21:20:16.058Z,99.77
2018-12-18T21:25:23.303Z,121.90
2018-12-18T21:30:29.219Z,125.37
2018-12-18T21:35:36.465Z,62.00
2018-12-18T21:40:43.515Z,73.07
2018-12-18T21:45:49.348Z,92.60
2018-12-18T21:50:55.412Z,57.83
2018-12-18T21:56:02.619Z,70.53
2018-12-18T22:01:09.801Z,54.37
2018-12-18T22:06:15.831Z,59.35
2018-12-18T22:11:23.796Z,56.83
2018-12-18T22:16:29.668Z,61.23
2018-12-18T22:21:35.561Z,120.07
2018-12-18T22:26:41.458Z,71.93
2018-12-18T22:31:48.670Z,62.35
2018-12-18T22:36:55.002Z,65.67
2018-12-18T22:42:01.071Z,65.93
2018-12-18T22:47:07.658Z,72.20
2018-12-18T22:52:15.425Z,69.97
2018-12-18T22:57:22.908Z,156.50
2018-12-18T23:02:28.764Z,67.47
2018-12-18T23:07:37.152Z,79.57
2018-12-18T23:12:45.735Z,67.10
2018-12-18T23:17:52.797Z,64.10
2018-12-18T23:22:58.682Z,73.57
2018-12-18T23:28:06.999Z,62.50
2018-12-18T23:33:15.298Z,58.35
2018-12-18T23:38:21.111Z,62.50
2018-12-18T23:43:28.500Z,58.53
2018-12-18T23:48:39.698Z,58.97
2018-12-18T23:53:44.831Z,56.97
2018-12-18T23:58:52.849Z,67.33
